createdAt,value
2018-11-22T00:00:34.201Z,3.84
2018-11-22T00:03:02.716Z,3.84
2018-11-22T00:05:31.074Z,3.89
2018-11-22T00:08:00.400Z,3.82
2018-11-22T00:10:29.668Z,3.79
2018-11-22T00:12:58.107Z,3.77
2018-11-22T00:15:27.046Z,3.82
2018-11-22T00:17:56.067Z,3.82
2018-11-22T00:20:25.653Z,3.76
2018-11-22T00:22:54.248Z,3.77
2018-11-22T00:25:22.608Z,3.63
2018-11-22T00:27:51.117Z,3.63
2018-11-22T00:30:20.983Z,3.60
2018-11-22T00:32:49.459Z,3.65
2018-11-22T00:35:18.600Z,3.75
2018-11-22T00:37:47.859Z,3.76
2018-11-22T00:40:17.944Z,3.81
2018-11-22T00:42:46.894Z,3.89
2018-11-22T00:45:16.728Z,3.93
2018-11-22T00:47:45.108Z,4.04
2018-11-22T00:50:15.227Z,4.00
2018-11-22T00:52:43.706Z,3.98
2018-11-22T00:55:14.503Z,3.94
2018-11-22T00:57:43.338Z,3.96
2018-11-22T01:00:31.895Z,3.98
2018-11-22T01:03:00.305Z,3.88
2018-11-22T01:05:29.012Z,3.86
2018-11-22T01:07:57.542Z,3.91
2018-11-22T01:10:27.210Z,3.95
2018-11-22T01:12:57.222Z,4.05
2018-11-22T01:15:25.577Z,4.02
2018-11-22T01:17:53.938Z,3.87
2018-11-22T01:20:23.511Z,3.75
2018-11-22T01:22:53.020Z,3.83
2018-11-22T01:25:21.978Z,3.82
2018-11-22T01:27:50.390Z,3.83
2018-11-22T01:30:20.071Z,3.88
2018-11-22T01:32:49.705Z,3.85
2018-11-22T01:35:19.593Z,3.85
2018-11-22T01:38:07.372Z,3.82
2018-11-22T01:40:35.739Z,3.87
2018-11-22T01:43:04.170Z,3.73
2018-11-22T01:45:32.902Z,3.69
2018-11-22T01:48:01.270Z,3.67
2018-11-22T01:50:29.652Z,3.55
2018-11-22T01:52:58.013Z,3.47
2018-11-22T01:55:26.424Z,3.49
2018-11-22T01:57:54.776Z,3.50
2018-11-22T02:00:25.412Z,3.51
2018-11-22T02:02:54.074Z,3.60
2018-11-22T02:05:23.816Z,3.65
2018-11-22T02:07:52.232Z,3.64
2018-11-22T02:10:21.899Z,3.64
2018-11-22T02:12:50.254Z,3.59
2018-11-22T02:15:20.195Z,3.60
2018-11-22T02:17:48.602Z,3.60
2018-11-22T02:20:21.085Z,3.56
2018-11-22T02:22:49.897Z,3.60
2018-11-22T02:25:19.521Z,3.55
2018-11-22T02:27:47.893Z,3.69
2018-11-22T02:30:21.594Z,3.72
2018-11-22T02:32:51.522Z,3.69
2018-11-22T02:35:20.707Z,3.70
2018-11-22T02:37:49.253Z,3.79
2018-11-22T02:40:18.825Z,3.73
2018-11-22T02:42:47.964Z,3.70
2018-11-22T02:45:17.831Z,3.66
2018-11-22T02:47:46.227Z,3.63
2018-11-22T02:50:16.030Z,3.64
2018-11-22T02:52:44.668Z,3.69
2018-11-22T02:55:13.139Z,3.75
2018-11-22T02:57:42.049Z,4.02
2018-11-22T03:00:31.872Z,4.07
2018-11-22T03:03:00.504Z,4.17
2018-11-22T03:05:28.922Z,4.01
2018-11-22T03:07:57.282Z,3.93
2018-11-22T03:10:25.890Z,4.02
2018-11-22T03:12:54.289Z,3.93
2018-11-22T03:15:22.860Z,4.06
2018-11-22T03:17:51.239Z,4.21
2018-11-22T03:20:19.617Z,4.43
2018-11-22T03:22:47.987Z,4.41
2018-11-22T03:25:17.586Z,4.38
2018-11-22T03:27:46.755Z,4.44
2018-11-22T03:30:16.504Z,4.44
2018-11-22T03:32:45.197Z,4.50
2018-11-22T03:35:15.005Z,4.46
2018-11-22T03:37:43.378Z,4.35
2018-11-22T03:40:30.833Z,4.32
2018-11-22T03:42:59.184Z,4.31
2018-11-22T03:45:28.531Z,4.50
2018-11-22T03:47:57.913Z,4.52
2018-11-22T03:50:27.384Z,4.44
2018-11-22T03:52:56.244Z,4.53
2018-11-22T03:55:24.637Z,4.52
2018-11-22T03:57:53.503Z,4.50
2018-11-22T04:00:23.460Z,4.56
2018-11-22T04:02:52.314Z,4.61
2018-11-22T04:05:22.263Z,4.59
2018-11-22T04:07:50.625Z,4.56
2018-11-22T04:10:20.653Z,4.58
2018-11-22T04:12:49.583Z,4.58
2018-11-22T04:15:18.255Z,4.63
2018-11-22T04:17:46.684Z,4.70
2018-11-22T04:20:34.130Z,4.84
2018-11-22T04:23:02.483Z,4.78
2018-11-22T04:25:30.890Z,4.74
2018-11-22T04:27:59.241Z,4.67
2018-11-22T04:30:29.145Z,4.68
2018-11-22T04:32:57.574Z,4.72
2018-11-22T04:35:26.222Z,4.69
2018-11-22T04:37:54.743Z,4.66
2018-11-22T04:40:24.251Z,4.79
2018-11-22T04:42:53.311Z,4.75
2018-11-22T04:45:22.450Z,4.88
2018-11-22T04:47:52.240Z,4.84
2018-11-22T04:50:21.961Z,4.80
2018-11-22T04:52:50.328Z,4.80
2018-11-22T04:55:18.736Z,4.77
2018-11-22T04:57:47.100Z,4.87
2018-11-22T05:00:35.265Z,4.86
2018-11-22T05:03:03.679Z,5.05
2018-11-22T05:05:32.048Z,4.99
2018-11-22T05:08:00.806Z,4.96
2018-11-22T05:10:29.676Z,5.00
2018-11-22T05:12:58.129Z,4.97
2018-11-22T05:15:28.338Z,4.88
2018-11-22T05:17:57.069Z,4.91
2018-11-22T05:20:25.439Z,4.92
2018-11-22T05:23:13.275Z,4.85
2018-11-22T05:25:41.725Z,4.80
2018-11-22T05:28:10.247Z,4.85
2018-11-22T05:30:38.609Z,4.93
2018-11-22T05:33:07.456Z,4.99
2018-11-22T05:35:35.832Z,4.87
2018-11-22T05:40:39.797Z,4.63
2018-11-22T05:43:08.310Z,4.55
2018-11-22T05:45:37.898Z,4.40
2018-11-22T05:48:06.467Z,4.33
2018-11-22T05:50:35.278Z,4.28
2018-11-22T05:53:04.547Z,4.24
2018-11-22T05:55:33.221Z,4.21
2018-11-22T05:58:01.909Z,4.20
2018-11-22T06:00:31.958Z,4.21
2018-11-22T06:03:01.729Z,4.22
2018-11-22T06:05:31.472Z,4.18
2018-11-22T06:07:59.831Z,4.20
2018-11-22T06:10:30.706Z,4.32
2018-11-22T06:12:59.565Z,4.33
2018-11-22T06:15:27.987Z,4.42
2018-11-22T06:17:57.465Z,4.50
2018-11-22T06:20:27.533Z,4.45
2018-11-22T06:22:56.353Z,4.40
2018-11-22T06:25:24.720Z,4.33
2018-11-22T06:27:53.681Z,4.22
2018-11-22T06:30:23.305Z,4.16
2018-11-22T06:32:52.946Z,4.19
2018-11-22T06:35:21.700Z,4.23
2018-11-22T06:37:50.169Z,4.20
2018-11-22T06:40:18.958Z,4.35
2018-11-22T12:18:04.468Z,7.47
2018-11-22T12:20:33.164Z,7.53
2018-11-22T12:23:03.682Z,7.54
2018-11-22T12:25:32.300Z,7.56
2018-11-22T12:28:03.595Z,7.52
2018-11-22T12:30:33.391Z,7.42
2018-11-22T12:33:13.191Z,7.46
2018-11-22T12:35:41.862Z,7.62
2018-11-22T12:38:15.756Z,7.65
2018-11-22T12:40:44.948Z,7.76
2018-11-22T12:43:13.544Z,7.79
2018-11-22T12:45:42.174Z,7.77
2018-11-22T12:48:11.159Z,7.73
2018-11-22T12:50:39.856Z,7.73
2018-11-22T12:53:08.501Z,7.67
2018-11-22T12:55:37.110Z,7.68
2018-11-22T12:58:05.715Z,7.68
2018-11-22T13:00:34.348Z,7.77
2018-11-22T13:03:06.180Z,7.91
2018-11-22T13:05:34.812Z,8.08
2018-11-22T13:08:06.226Z,8.17
2018-11-22T13:10:34.885Z,8.33
2018-11-22T13:13:05.483Z,8.48
2018-11-22T13:15:34.138Z,8.68
2018-11-22T13:18:04.975Z,8.95
2018-11-22T13:20:33.631Z,9.15
2018-11-22T13:23:04.952Z,9.29
2018-11-22T13:25:33.543Z,9.42
2018-11-22T13:28:05.483Z,9.58
2018-11-22T13:30:34.282Z,9.79
2018-11-22T13:33:05.675Z,9.93
2018-11-22T13:35:34.327Z,10.09
2018-11-22T13:38:05.403Z,10.20
2018-11-22T13:40:34.253Z,10.50
2018-11-22T13:43:05.755Z,10.62
2018-11-22T13:45:34.351Z,10.48
2018-11-22T13:48:06.254Z,10.23
2018-11-22T13:50:41.687Z,9.99
2018-11-22T13:53:06.987Z,9.80
2018-11-22T13:55:35.692Z,9.60
2018-11-22T13:58:05.549Z,9.41
2018-11-22T14:00:34.821Z,9.36
2018-11-22T14:03:06.831Z,9.26
2018-11-22T14:05:35.427Z,9.19
2018-11-22T14:08:05.298Z,9.14
2018-11-22T14:10:33.900Z,9.66
2018-11-22T14:13:04.866Z,11.64
2018-11-22T14:15:33.559Z,13.68
2018-11-22T14:18:07.699Z,14.81
2018-11-22T14:20:37.054Z,14.36
2018-11-22T14:23:05.822Z,14.32
2018-11-22T14:25:34.641Z,14.74
2018-11-22T14:28:05.201Z,15.00
2018-11-22T14:30:35.223Z,14.27
2018-11-22T14:33:05.768Z,13.21
2018-11-22T14:35:34.403Z,12.25
2018-11-22T14:38:05.681Z,11.54
2018-11-22T14:40:34.392Z,10.93
2018-11-22T14:43:06.191Z,10.46
2018-11-22T14:45:34.810Z,10.00
2018-11-22T14:48:05.756Z,9.70
2018-11-22T14:50:44.220Z,9.42
2018-11-22T14:53:15.671Z,9.19
2018-11-22T14:55:44.331Z,9.01
2018-11-22T14:58:12.946Z,8.93
2018-11-22T15:00:41.613Z,8.78
2018-11-22T15:03:10.244Z,8.64
2018-11-22T15:05:38.883Z,8.48
2018-11-22T15:08:07.579Z,8.40
2018-11-22T15:10:36.203Z,8.28
2018-11-22T15:13:05.671Z,8.24
2018-11-22T15:15:34.291Z,8.08
2018-11-22T15:18:07.059Z,7.99
2018-11-22T15:20:35.683Z,7.91
2018-11-22T15:23:05.435Z,7.83
2018-11-22T15:25:34.031Z,7.76
2018-11-22T15:28:04.647Z,7.74
2018-11-22T15:30:33.260Z,7.63
2018-11-22T15:33:03.961Z,7.54
2018-11-22T15:35:32.563Z,7.50
2018-11-22T15:38:03.660Z,7.41
2018-11-22T15:40:32.257Z,7.35
2018-11-22T15:43:03.635Z,7.29
2018-11-22T15:45:35.361Z,7.24
2018-11-22T15:48:04.937Z,7.14
2018-11-22T15:50:33.661Z,7.11
2018-11-22T15:53:04.718Z,7.10
2018-11-22T15:55:33.298Z,7.08
2018-11-22T15:58:03.967Z,6.97
2018-11-22T16:00:33.695Z,6.87
2018-11-22T16:03:04.771Z,6.80
2018-11-22T16:05:33.957Z,6.78
2018-11-22T16:08:06.743Z,6.72
2018-11-22T16:10:36.442Z,6.78
2018-11-22T16:13:10.321Z,6.79
2018-11-22T16:15:45.220Z,6.78
2018-11-22T16:18:13.990Z,6.88
2018-11-22T16:20:44.559Z,6.77
2018-11-22T16:23:13.236Z,6.72
2018-11-22T16:25:41.823Z,6.66
2018-11-22T16:28:10.751Z,6.67
2018-11-22T16:30:40.988Z,6.64
2018-11-22T16:33:09.496Z,6.56
2018-11-22T16:35:38.211Z,6.58
2018-11-22T16:38:07.423Z,6.45
2018-11-22T16:40:36.120Z,6.37
2018-11-22T16:43:06.519Z,6.33
2018-11-22T16:45:37.295Z,6.33
2018-11-22T16:48:07.920Z,6.34
2018-11-22T16:50:37.625Z,6.39
2018-11-22T16:53:07.343Z,6.32
2018-11-22T16:55:36.007Z,6.29
2018-11-22T16:58:07.522Z,6.32
2018-11-22T17:00:40.152Z,6.34
2018-11-22T17:03:12.084Z,6.31
2018-11-22T17:05:41.840Z,6.31
2018-11-22T17:08:11.230Z,6.30
2018-11-22T17:10:40.679Z,6.39
2018-11-22T17:13:09.359Z,6.33
2018-11-22T17:15:39.451Z,6.35
2018-11-22T17:18:08.991Z,6.47
2018-11-22T17:20:37.614Z,6.34
2018-11-22T17:23:08.009Z,6.31
2018-11-22T17:25:37.345Z,6.31
2018-11-22T17:28:08.844Z,6.31
2018-11-22T17:30:39.841Z,6.44
2018-11-22T17:33:08.504Z,6.34
2018-11-22T17:35:37.521Z,6.35
2018-11-22T17:38:07.603Z,6.32
2018-11-22T17:40:38.655Z,6.30
2018-11-22T17:43:07.576Z,6.22
2018-11-22T17:45:39.846Z,6.19
2018-11-22T17:48:08.871Z,6.24
2018-11-22T17:50:41.379Z,6.24
2018-11-22T17:53:11.040Z,6.23
2018-11-22T17:55:39.878Z,6.24
2018-11-22T17:58:08.658Z,6.35
2018-11-22T18:00:41.011Z,6.35
2018-11-22T18:03:09.718Z,6.21
2018-11-22T18:05:38.706Z,6.13
2018-11-22T18:08:07.399Z,6.12
2018-11-22T18:10:37.661Z,6.02
2018-11-22T18:13:06.998Z,6.12
2018-11-22T18:15:41.291Z,6.28
2018-11-22T18:18:09.954Z,6.37
2018-11-22T18:20:38.571Z,6.39
2018-11-22T18:23:11.440Z,6.36
2018-11-22T18:25:35.994Z,6.39
2018-11-22T18:28:05.478Z,6.40
2018-11-22T18:30:34.757Z,6.38
2018-11-22T18:33:07.479Z,6.28
2018-11-22T18:35:36.208Z,6.26
2018-11-22T18:38:06.025Z,6.08
2018-11-22T18:40:36.414Z,5.87
2018-11-22T18:43:05.687Z,5.70
2018-11-22T18:45:36.648Z,5.67
2018-11-22T18:48:07.489Z,5.66
2018-11-22T18:50:36.873Z,5.70
2018-11-22T18:53:07.201Z,5.93
2018-11-22T18:55:35.858Z,5.93
2018-11-22T18:58:06.742Z,6.01
2018-11-22T19:00:36.948Z,5.93
2018-11-22T19:03:10.455Z,5.87
2018-11-22T19:05:39.149Z,5.89
2018-11-22T19:08:07.849Z,6.01
2018-11-22T19:10:37.934Z,6.07
2018-11-22T19:13:07.979Z,6.13
2018-11-22T19:15:38.079Z,6.22
2018-11-22T19:18:08.176Z,6.23
2018-11-22T19:20:39.826Z,6.31
2018-11-22T19:23:09.819Z,6.45
2018-11-22T19:25:38.599Z,6.42
2018-11-22T19:28:08.051Z,6.42
2018-11-22T19:30:44.854Z,6.55
2018-11-22T19:33:14.887Z,6.48
2018-11-22T19:35:45.232Z,6.42
2018-11-22T19:38:13.960Z,6.46
2018-11-22T19:40:44.307Z,6.46
2018-11-22T19:43:13.263Z,6.50
2018-11-22T19:45:44.777Z,6.54
2018-11-22T19:48:16.037Z,6.47
2018-11-22T19:50:45.157Z,6.52
2018-11-22T19:53:15.179Z,6.49
2018-11-22T19:55:44.265Z,6.48
2018-11-22T19:58:16.633Z,6.55
2018-11-22T20:00:45.988Z,6.45
2018-11-22T20:03:14.728Z,6.42
2018-11-22T20:05:44.527Z,6.43
2018-11-22T20:08:20.479Z,6.41
2018-11-22T20:10:50.782Z,6.37
2018-11-22T20:13:20.348Z,6.45
2018-11-22T20:15:48.992Z,6.36
2018-11-22T20:18:17.639Z,6.28
2018-11-22T20:20:49.884Z,6.22
2018-11-22T20:23:21.578Z,6.23
2018-11-22T20:25:44.046Z,6.17
2018-11-22T20:28:12.719Z,6.12
2018-11-22T20:30:44.898Z,6.08
2018-11-22T20:33:13.686Z,6.10
2018-11-22T20:35:42.561Z,6.02
2018-11-22T20:38:11.341Z,6.06
2018-11-22T20:40:40.103Z,6.11
2018-11-22T20:43:09.458Z,6.03
2018-11-22T20:45:40.883Z,6.05
2018-11-22T20:48:09.132Z,5.99
2018-11-22T20:50:43.691Z,5.97
2018-11-22T20:53:12.345Z,5.94
2018-11-22T20:55:41.532Z,6.04
2018-11-22T20:58:10.621Z,6.08
2018-11-22T21:00:41.258Z,6.02
2018-11-22T21:03:10.348Z,5.95
2018-11-22T21:05:39.058Z,5.94
2018-11-22T21:08:07.694Z,5.92
2018-11-22T21:10:36.475Z,5.88
2018-11-22T21:13:05.303Z,5.97
2018-11-22T21:15:35.170Z,5.87
2018-11-22T21:18:08.088Z,5.84
2018-11-22T21:20:38.999Z,5.86
2018-11-22T21:23:07.654Z,5.88
2018-11-22T21:25:36.328Z,5.86
2018-11-22T21:28:05.655Z,5.86
2018-11-22T21:30:35.964Z,5.82
2018-11-22T21:33:05.520Z,5.79
2018-11-22T21:35:34.639Z,5.79
2018-11-22T21:38:05.566Z,5.74
2018-11-22T21:40:34.807Z,5.73
2018-11-22T21:43:05.385Z,5.73
2018-11-22T21:45:34.661Z,5.81
2018-11-22T21:48:04.503Z,5.86
2018-11-22T21:50:33.132Z,5.89
2018-11-22T21:53:04.225Z,5.89
2018-11-22T21:55:32.814Z,5.90
2018-11-22T21:58:04.467Z,5.94
2018-11-22T22:00:37.860Z,5.86
2018-11-22T22:03:08.391Z,5.75
2018-11-22T22:05:37.248Z,5.72
2018-11-22T22:08:06.180Z,5.70
2018-11-22T22:10:35.045Z,5.69
2018-11-22T22:13:06.835Z,5.70
2018-11-22T22:15:36.287Z,5.69
2018-11-22T22:18:07.369Z,5.70
2018-11-22T22:20:36.635Z,5.67
2018-11-22T22:23:13.301Z,5.63
2018-11-22T22:25:38.143Z,5.53
2018-11-22T22:28:09.209Z,5.57
2018-11-22T22:30:45.421Z,5.58
2018-11-22T22:33:21.915Z,5.72
2018-11-22T22:35:50.534Z,5.62
2018-11-22T22:38:19.275Z,5.54
2018-11-22T22:40:47.896Z,5.59
2018-11-22T22:43:16.568Z,5.58
2018-11-22T22:45:45.281Z,5.53
2018-11-22T22:48:14.233Z,5.48
2018-11-22T22:50:46.187Z,5.51
2018-11-22T22:53:15.658Z,5.52
2018-11-22T22:55:47.487Z,5.47
2018-11-22T22:58:16.927Z,5.56
2018-11-22T23:00:48.104Z,5.54
2018-11-22T23:03:18.215Z,5.56
2018-11-22T23:05:47.880Z,5.67
2018-11-22T23:08:17.531Z,5.58
2018-11-22T23:10:47.055Z,5.48
2018-11-22T23:13:17.702Z,5.46
2018-11-22T23:15:47.980Z,5.47
2018-11-22T23:18:17.062Z,5.46
2018-11-22T23:20:51.471Z,5.53
2018-11-22T23:23:21.781Z,5.42
2018-11-22T23:25:50.848Z,5.36
2018-11-22T23:28:19.563Z,5.34
2018-11-22T23:30:48.211Z,5.30
2018-11-22T23:33:16.856Z,5.28
2018-11-22T23:35:45.611Z,5.28
2018-11-22T23:38:14.236Z,5.23
2018-11-22T23:40:43.586Z,5.28
2018-11-22T23:43:13.037Z,5.35
2018-11-22T23:45:43.428Z,5.34
2018-11-22T23:48:13.474Z,5.25
2018-11-22T23:50:42.419Z,5.23
2018-11-22T23:53:12.180Z,5.25
2018-11-22T23:55:41.761Z,5.20
2018-11-22T23:58:11.398Z,5.19
